Pagrindinis puslapis
METAR-TAF:

METAR-TAF

Oro uostai :

Al Wajh, Saudo Arabija

platuma: 26-12N, ilguma: 036-28E, Aukštis: 20 m

Dabartinis oras

Ataskaita buvo paskelbta 40 minutes, ne 11:00 UTC
Vėjas 8 kt iš Vakarų/Pietvakarių
Temperatūra 34°C
Drėgmė 50%
Slėgis 1010 hPa
Matomumas 10 km arba daugiau
nėra debesų žemiau 1500 m ir nėra kamuolinių lietaus debesų

METAR: OEWJ 141100Z 25008KT CAVOK 34/22 Q1010 NOSIG

Laikas: 14:40 (11:40 UTC)

Prognozė

Ataskaita buvo paskelbta 12 valandos ir 40 minutes, ne 23:00 UTC
Prognozė galioja nuo 14 metu 00 UTC su 15 metu 06 UTC
Vėjas 3 kt nuo kintamojo kryptimis
Matomumas 10 km arba daugiau
Mažai debesys ne aukštis 4000 ft
Tapsmas
nuo 14 metu 09 UTC su 14 metu 11 UTC
Vėjas 15 kt iš Vakarų/Šiaurės Vakarų
Tapsmas
nuo 14 metu 16 UTC su 14 metu 18 UTC
Vėjas 8 kt iš Šiaurės/Šiaurės Rytų

TAF: OEWJ 132300Z 1400/1506 VRB03KT 9999 FEW040 BECMG 1409/1411 29015KT BECMG 1416/1418 02008KT

Orai ataskaitas ir orų prognozės (METAR, TAF).

turimą stotys yra geltonos ir raudonos taškus žemėlapyje.

Perkelti pele per norėdami pamatyti stoties vardą.

Tada spustelėkite, norėdami matyti oro stebėjimo ir prognozės.

Norėdami pakeisti žemėlapį: spustelėkite ant žalios mygtukų su juodo kryžiaus žemyn,; žalią mygtuką su brūkšneliu, jei norite nutolinti; arba žalių rodyklių gretimoms žemėlapius.


METAR-TAF: